sensor_id;sensor_type;location;lat;lon;timestamp;temperature;humidity
62339;DHT22;48368;53.406;6.214;2023-11-19T00:04:56;10.80;99.90
62339;DHT22;48368;53.406;6.214;2023-11-19T00:07:22;10.80;99.90
62339;DHT22;48368;53.406;6.214;2023-11-19T00:09:47;10.80;99.90
62339;DHT22;48368;53.406;6.214;2023-11-19T00:12:13;10.80;99.90
62339;DHT22;48368;53.406;6.214;2023-11-19T00:14:38;10.70;99.90
62339;DHT22;48368;53.406;6.214;2023-11-19T00:17:04;10.80;99.90
62339;DHT22;48368;53.406;6.214;2023-11-19T00:19:30;10.90;99.90
62339;DHT22;48368;53.406;6.214;2023-11-19T00:21:55;10.90;99.90
62339;DHT22;48368;53.406;6.214;2023-11-19T00:24:21;10.90;99.90
62339;DHT22;48368;53.406;6.214;2023-11-19T00:26:46;10.90;99.90
62339;DHT22;48368;53.406;6.214;2023-11-19T00:29:12;11.00;99.90
62339;DHT22;48368;53.406;6.214;2023-11-19T00:31:39;11.00;99.90
62339;DHT22;48368;53.406;6.214;2023-11-19T00:34:05;11.00;99.90
62339;DHT22;48368;53.406;6.214;2023-11-19T00:36:31;10.90;99.90
62339;DHT22;48368;53.406;6.214;2023-11-19T00:38:57;10.90;99.90
62339;DHT22;48368;53.406;6.214;2023-11-19T00:41:23;10.90;99.90
62339;DHT22;48368;53.406;6.214;2023-11-19T00:43:49;11.00;99.90
62339;DHT22;48368;53.406;6.214;2023-11-19T00:46:14;11.00;99.90
62339;DHT22;48368;53.406;6.214;2023-11-19T00:48:40;10.90;99.90
62339;DHT22;48368;53.406;6.214;2023-11-19T00:51:06;10.90;99.90
62339;DHT22;48368;53.406;6.214;2023-11-19T00:53:32;10.90;99.90
62339;DHT22;48368;53.406;6.214;2023-11-19T00:55:59;11.00;99.90
62339;DHT22;48368;53.406;6.214;2023-11-19T00:58:25;11.00;99.90
62339;DHT22;48368;53.406;6.214;2023-11-19T01:00:51;11.00;99.90
62339;DHT22;48368;53.406;6.214;2023-11-19T01:03:18;10.90;99.90
62339;DHT22;48368;53.406;6.214;2023-11-19T01:05:43;11.00;99.90
62339;DHT22;48368;53.406;6.214;2023-11-19T01:08:10;10.90;99.90
62339;DHT22;48368;53.406;6.214;2023-11-19T01:10:39;11.00;99.90
62339;DHT22;48368;53.406;6.214;2023-11-19T01:13:05;11.00;99.90
62339;DHT22;48368;53.406;6.214;2023-11-19T01:15:33;10.90;99.90
62339;DHT22;48368;53.406;6.214;2023-11-19T01:17:59;11.00;99.90
62339;DHT22;48368;53.406;6.214;2023-11-19T01:20:24;11.10;99.90
62339;DHT22;48368;53.406;6.214;2023-11-19T01:22:51;11.10;99.90
62339;DHT22;48368;53.406;6.214;2023-11-19T01:25:17;11.10;99.90
62339;DHT22;48368;53.406;6.214;2023-11-19T01:27:43;11.10;99.90
62339;DHT22;48368;53.406;6.214;2023-11-19T01:30:09;11.10;99.90
62339;DHT22;48368;53.406;6.214;2023-11-19T01:32:38;11.10;99.90
62339;DHT22;48368;53.406;6.214;2023-11-19T01:35:04;11.10;99.90
62339;DHT22;48368;53.406;6.214;2023-11-19T01:37:30;11.10;99.90
62339;DHT22;48368;53.406;6.214;2023-11-19T01:39:57;11.10;99.90
62339;DHT22;48368;53.406;6.214;2023-11-19T01:42:23;11.10;99.90
62339;DHT22;48368;53.406;6.214;2023-11-19T01:45:00;11.10;99.90
62339;DHT22;48368;53.406;6.214;2023-11-19T01:47:27;11.10;99.90
62339;DHT22;48368;53.406;6.214;2023-11-19T01:49:54;11.10;99.90
62339;DHT22;48368;53.406;6.214;2023-11-19T01:52:22;11.10;99.90
62339;DHT22;48368;53.406;6.214;2023-11-19T01:54:48;11.00;99.90
62339;DHT22;48368;53.406;6.214;2023-11-19T01:57:15;11.00;99.90
62339;DHT22;48368;53.406;6.214;2023-11-19T01:59:40;11.00;99.90
62339;DHT22;48368;53.406;6.214;2023-11-19T02:02:09;11.00;99.90
62339;DHT22;48368;53.406;6.214;2023-11-19T02:04:36;11.00;99.90
62339;DHT22;48368;53.406;6.214;2023-11-19T02:07:04;11.00;99.90
62339;DHT22;48368;53.406;6.214;2023-11-19T02:09:30;10.90;99.90
62339;DHT22;48368;53.406;6.214;2023-11-19T02:11:55;10.90;99.90
62339;DHT22;48368;53.406;6.214;2023-11-19T02:14:25;10.90;99.90
62339;DHT22;48368;53.406;6.214;2023-11-19T02:16:51;10.90;99.90
62339;DHT22;48368;53.406;6.214;2023-11-19T02:19:20;10.80;99.90
62339;DHT22;48368;53.406;6.214;2023-11-19T02:21:46;10.90;99.90
62339;DHT22;48368;53.406;6.214;2023-11-19T02:24:14;10.80;99.90
62339;DHT22;48368;53.406;6.214;2023-11-19T02:29:10;10.80;99.90
62339;DHT22;48368;53.406;6.214;2023-11-19T02:31:36;10.80;99.90
62339;DHT22;48368;53.406;6.214;2023-11-19T02:34:02;10.80;99.90
62339;DHT22;48368;53.406;6.214;2023-11-19T02:36:28;10.70;99.90
62339;DHT22;48368;53.406;6.214;2023-11-19T02:38:54;10.70;99.90
62339;DHT22;48368;53.406;6.214;2023-11-19T02:41:20;10.80;99.90
62339;DHT22;48368;53.406;6.214;2023-11-19T02:43:46;10.70;99.90
62339;DHT22;48368;53.406;6.214;2023-11-19T02:46:13;10.70;99.90
62339;DHT22;48368;53.406;6.214;2023-11-19T02:48:39;10.80;99.90
62339;DHT22;48368;53.406;6.214;2023-11-19T02:51:05;10.80;99.90
62339;DHT22;48368;53.406;6.214;2023-11-19T02:53:35;10.70;99.90
62339;DHT22;48368;53.406;6.214;2023-11-19T02:56:02;10.70;99.90
62339;DHT22;48368;53.406;6.214;2023-11-19T02:58:37;10.70;99.90
62339;DHT22;48368;53.406;6.214;2023-11-19T03:01:04;10.60;99.90
62339;DHT22;48368;53.406;6.214;2023-11-19T03:03:38;10.60;99.90
62339;DHT22;48368;53.406;6.214;2023-11-19T03:06:06;10.60;99.90
62339;DHT22;48368;53.406;6.214;2023-11-19T03:08:32;10.50;99.90
62339;DHT22;48368;53.406;6.214;2023-11-19T03:10:58;10.60;99.90
62339;DHT22;48368;53.406;6.214;2023-11-19T03:13:24;10.50;99.90
62339;DHT22;48368;53.406;6.214;2023-11-19T03:15:50;10.50;99.90
62339;DHT22;48368;53.406;6.214;2023-11-19T03:18:17;10.50;99.90
62339;DHT22;48368;53.406;6.214;2023-11-19T03:20:42;10.50;99.90
62339;DHT22;48368;53.406;6.214;2023-11-19T03:23:08;10.60;99.90
62339;DHT22;48368;53.406;6.214;2023-11-19T03:25:34;10.50;99.90
62339;DHT22;48368;53.406;6.214;2023-11-19T03:28:00;10.50;99.90
62339;DHT22;48368;53.406;6.214;2023-11-19T03:30:27;10.50;99.90
62339;DHT22;48368;53.406;6.214;2023-11-19T03:32:54;10.60;99.90
62339;DHT22;48368;53.406;6.214;2023-11-19T03:35:20;10.50;99.90
62339;DHT22;48368;53.406;6.214;2023-11-19T03:37:45;10.50;99.90
62339;DHT22;48368;53.406;6.214;2023-11-19T03:40:12;10.50;99.90
62339;DHT22;48368;53.406;6.214;2023-11-19T03:42:37;10.60;99.90
62339;DHT22;48368;53.406;6.214;2023-11-19T03:45:06;10.50;99.90
62339;DHT22;48368;53.406;6.214;2023-11-19T03:47:34;10.50;99.90
62339;DHT22;48368;53.406;6.214;2023-11-19T03:50:00;10.60;99.90
62339;DHT22;48368;53.406;6.214;2023-11-19T03:52:26;10.60;99.90
62339;DHT22;48368;53.406;6.214;2023-11-19T03:54:55;10.60;99.90
62339;DHT22;48368;53.406;6.214;2023-11-19T03:57:21;10.60;99.90
62339;DHT22;48368;53.406;6.214;2023-11-19T03:59:47;10.60;99.90
62339;DHT22;48368;53.406;6.214;2023-11-19T04:02:13;10.60;99.90
62339;DHT22;48368;53.406;6.214;2023-11-19T04:04:39;10.60;99.90
62339;DHT22;48368;53.406;6.214;2023-11-19T04:07:05;10.60;99.90
62339;DHT22;48368;53.406;6.214;2023-11-19T04:09:31;10.50;99.90
62339;DHT22;48368;53.406;6.214;2023-11-19T04:11:59;10.50;99.90
62339;DHT22;48368;53.406;6.214;2023-11-19T04:14:26;10.60;99.90
62339;DHT22;48368;53.406;6.214;2023-11-19T04:16:51;10.60;99.90
62339;DHT22;48368;53.406;6.214;2023-11-19T04:19:18;10.50;99.90
62339;DHT22;48368;53.406;6.214;2023-11-19T04:21:44;10.50;99.90
62339;DHT22;48368;53.406;6.214;2023-11-19T04:24:10;10.60;99.90
62339;DHT22;48368;53.406;6.214;2023-11-19T04:26:43;10.50;99.90
62339;DHT22;48368;53.406;6.214;2023-11-19T04:29:14;10.50;99.90
62339;DHT22;48368;53.406;6.214;2023-11-19T04:31:41;10.50;99.90
62339;DHT22;48368;53.406;6.214;2023-11-19T04:34:07;10.60;99.90
62339;DHT22;48368;53.406;6.214;2023-11-19T04:36:33;10.50;99.90
62339;DHT22;48368;53.406;6.214;2023-11-19T04:38:59;10.50;99.90
62339;DHT22;48368;53.406;6.214;2023-11-19T04:41:26;10.50;99.90
62339;DHT22;48368;53.406;6.214;2023-11-19T04:43:55;10.50;99.90
62339;DHT22;48368;53.406;6.214;2023-11-19T04:46:21;10.50;99.90
62339;DHT22;48368;53.406;6.214;2023-11-19T04:48:47;10.50;99.90
62339;DHT22;48368;53.406;6.214;2023-11-19T04:51:12;10.50;99.90
62339;DHT22;48368;53.406;6.214;2023-11-19T04:53:38;10.50;99.90
62339;DHT22;48368;53.406;6.214;2023-11-19T04:56:13;10.40;99.90
62339;DHT22;48368;53.406;6.214;2023-11-19T04:58:39;10.50;99.90
62339;DHT22;48368;53.406;6.214;2023-11-19T05:01:05;10.40;99.90
62339;DHT22;48368;53.406;6.214;2023-11-19T05:03:31;10.50;99.90
62339;DHT22;48368;53.406;6.214;2023-11-19T05:05:57;10.50;99.90
62339;DHT22;48368;53.406;6.214;2023-11-19T05:08:23;10.50;99.90
62339;DHT22;48368;53.406;6.214;2023-11-19T05:10:49;10.50;99.90
62339;DHT22;48368;53.406;6.214;2023-11-19T05:13:14;10.50;99.90
62339;DHT22;48368;53.406;6.214;2023-11-19T05:15:40;10.60;99.90
62339;DHT22;48368;53.406;6.214;2023-11-19T05:18:06;10.50;99.90
62339;DHT22;48368;53.406;6.214;2023-11-19T05:20:32;10.50;99.90
62339;DHT22;48368;53.406;6.214;2023-11-19T05:22:58;10.50;99.90
62339;DHT22;48368;53.406;6.214;2023-11-19T05:25:26;10.50;99.90
62339;DHT22;48368;53.406;6.214;2023-11-19T05:27:52;10.50;99.90
62339;DHT22;48368;53.406;6.214;2023-11-19T05:30:18;10.50;99.90
62339;DHT22;48368;53.406;6.214;2023-11-19T05:32:43;10.50;99.90
62339;DHT22;48368;53.406;6.214;2023-11-19T05:35:09;10.50;99.90
62339;DHT22;48368;53.406;6.214;2023-11-19T05:37:35;10.50;99.90
62339;DHT22;48368;53.406;6.214;2023-11-19T05:40:01;10.50;99.90
62339;DHT22;48368;53.406;6.214;2023-11-19T05:42:29;10.40;99.90
62339;DHT22;48368;53.406;6.214;2023-11-19T05:44:54;10.40;99.90
62339;DHT22;48368;53.406;6.214;2023-11-19T05:47:20;10.40;99.90
62339;DHT22;48368;53.406;6.214;2023-11-19T05:49:46;10.40;99.90
62339;DHT22;48368;53.406;6.214;2023-11-19T05:52:11;10.40;99.90
62339;DHT22;48368;53.406;6.214;2023-11-19T05:54:38;10.30;99.90
62339;DHT22;48368;53.406;6.214;2023-11-19T05:57:07;10.30;99.90
62339;DHT22;48368;53.406;6.214;2023-11-19T05:59:36;10.30;99.90
62339;DHT22;48368;53.406;6.214;2023-11-19T06:02:02;10.30;99.90
62339;DHT22;48368;53.406;6.214;2023-11-19T06:04:28;10.20;99.90
62339;DHT22;48368;53.406;6.214;2023-11-19T06:06:54;10.30;99.90
62339;DHT22;48368;53.406;6.214;2023-11-19T06:09:21;10.30;99.90
62339;DHT22;48368;53.406;6.214;2023-11-19T06:11:49;10.30;99.90
62339;DHT22;48368;53.406;6.214;2023-11-19T06:14:16;10.20;99.90
62339;DHT22;48368;53.406;6.214;2023-11-19T06:16:42;10.30;99.90
62339;DHT22;48368;53.406;6.214;2023-11-19T06:19:07;10.20;99.90
62339;DHT22;48368;53.406;6.214;2023-11-19T06:21:33;10.20;99.90
62339;DHT22;48368;53.406;6.214;2023-11-19T06:23:59;10.30;99.90
62339;DHT22;48368;53.406;6.214;2023-11-19T06:26:24;10.20;99.90
62339;DHT22;48368;53.406;6.214;2023-11-19T06:28:50;10.20;99.90
62339;DHT22;48368;53.406;6.214;2023-11-19T06:31:16;10.30;99.90
62339;DHT22;48368;53.406;6.214;2023-11-19T06:33:42;10.30;99.90
62339;DHT22;48368;53.406;6.214;2023-11-19T06:36:08;10.30;99.90
62339;DHT22;48368;53.406;6.214;2023-11-19T06:38:35;10.20;99.90
62339;DHT22;48368;53.406;6.214;2023-11-19T06:41:00;10.30;99.90
62339;DHT22;48368;53.406;6.214;2023-11-19T06:43:27;10.30;99.90
62339;DHT22;48368;53.406;6.214;2023-11-19T06:45:53;10.30;99.90
62339;DHT22;48368;53.406;6.214;2023-11-19T06:48:19;10.30;99.90
62339;DHT22;48368;53.406;6.214;2023-11-19T06:50:45;10.30;99.90
62339;DHT22;48368;53.406;6.214;2023-11-19T06:53:10;10.30;99.90
62339;DHT22;48368;53.406;6.214;2023-11-19T06:55:36;10.30;99.90
62339;DHT22;48368;53.406;6.214;2023-11-19T06:58:02;10.30;99.90
62339;DHT22;48368;53.406;6.214;2023-11-19T07:00:34;10.30;99.90
62339;DHT22;48368;53.406;6.214;2023-11-19T07:03:02;10.30;99.90
62339;DHT22;48368;53.406;6.214;2023-11-19T07:05:30;10.20;99.90
62339;DHT22;48368;53.406;6.214;2023-11-19T07:07:56;10.20;99.90
62339;DHT22;48368;53.406;6.214;2023-11-19T07:10:21;10.20;99.90
62339;DHT22;48368;53.406;6.214;2023-11-19T07:12:47;10.20;99.90
62339;DHT22;48368;53.406;6.214;2023-11-19T07:15:15;10.30;99.90
62339;DHT22;48368;53.406;6.214;2023-11-19T07:17:43;10.30;99.90
62339;DHT22;48368;53.406;6.214;2023-11-19T07:20:11;10.20;99.90
62339;DHT22;48368;53.406;6.214;2023-11-19T07:22:38;10.20;99.90
62339;DHT22;48368;53.406;6.214;2023-11-19T07:25:04;10.30;99.90
62339;DHT22;48368;53.406;6.214;2023-11-19T07:27:46;10.30;99.90
62339;DHT22;48368;53.406;6.214;2023-11-19T07:38:31;10.30;99.90
62339;DHT22;48368;53.406;6.214;2023-11-19T07:41:21;10.30;99.90
62339;DHT22;48368;53.406;6.214;2023-11-19T07:47:59;10.30;99.90
62339;DHT22;48368;53.406;6.214;2023-11-19T07:50:27;10.40;99.90
62339;DHT22;48368;53.406;6.214;2023-11-19T08:07:48;10.50;99.90
62339;DHT22;48368;53.406;6.214;2023-11-19T08:14:07;10.50;99.90
62339;DHT22;48368;53.406;6.214;2023-11-19T08:23:48;10.50;99.90
62339;DHT22;48368;53.406;6.214;2023-11-19T08:26:14;10.50;99.90
62339;DHT22;48368;53.406;6.214;2023-11-19T08:28:41;10.50;99.90
62339;DHT22;48368;53.406;6.214;2023-11-19T08:31:07;10.60;99.90
62339;DHT22;48368;53.406;6.214;2023-11-19T08:33:32;10.60;99.90
62339;DHT22;48368;53.406;6.214;2023-11-19T08:35:58;10.60;99.90
62339;DHT22;48368;53.406;6.214;2023-11-19T08:38:24;10.60;99.90
62339;DHT22;48368;53.406;6.214;2023-11-19T08:40:50;10.60;99.90
62339;DHT22;48368;53.406;6.214;2023-11-19T08:43:17;10.70;99.90
62339;DHT22;48368;53.406;6.214;2023-11-19T08:45:43;10.70;99.90
62339;DHT22;48368;53.406;6.214;2023-11-19T08:48:09;10.70;99.90
62339;DHT22;48368;53.406;6.214;2023-11-19T08:50:34;10.70;99.90
62339;DHT22;48368;53.406;6.214;2023-11-19T08:53:00;10.70;99.90
62339;DHT22;48368;53.406;6.214;2023-11-19T08:55:26;10.80;99.90
62339;DHT22;48368;53.406;6.214;2023-11-19T08:57:51;10.80;99.90
62339;DHT22;48368;53.406;6.214;2023-11-19T09:00:48;10.80;99.90
62339;DHT22;48368;53.406;6.214;2023-11-19T09:54:09;11.50;99.90
62339;DHT22;48368;53.406;6.214;2023-11-19T10:59:35;11.60;99.90
62339;DHT22;48368;53.406;6.214;2023-11-19T11:02:05;11.70;99.90
62339;DHT22;48368;53.406;6.214;2023-11-19T11:04:39;11.70;99.90
62339;DHT22;48368;53.406;6.214;2023-11-19T11:36:30;11.70;99.90
62339;DHT22;48368;53.406;6.214;2023-11-19T11:39:33;11.70;99.90
62339;DHT22;48368;53.406;6.214;2023-11-19T11:52:11;11.90;99.90
62339;DHT22;48368;53.406;6.214;2023-11-19T12:25:19;11.40;99.90
62339;DHT22;48368;53.406;6.214;2023-11-19T12:27:57;11.40;99.90
62339;DHT22;48368;53.406;6.214;2023-11-19T12:30:39;11.40;99.90
62339;DHT22;48368;53.406;6.214;2023-11-19T12:33:14;11.40;99.90
62339;DHT22;48368;53.406;6.214;2023-11-19T12:36:19;11.50;99.90
62339;DHT22;48368;53.406;6.214;2023-11-19T12:42:43;11.60;99.90
62339;DHT22;48368;53.406;6.214;2023-11-19T12:49:18;11.60;99.90
62339;DHT22;48368;53.406;6.214;2023-11-19T13:06:53;11.60;99.90
62339;DHT22;48368;53.406;6.214;2023-11-19T13:59:18;11.60;99.90
62339;DHT22;48368;53.406;6.214;2023-11-19T14:02:26;11.50;99.90
62339;DHT22;48368;53.406;6.214;2023-11-19T14:05:04;11.60;99.90
62339;DHT22;48368;53.406;6.214;2023-11-19T14:07:45;11.50;99.90
62339;DHT22;48368;53.406;6.214;2023-11-19T14:21:17;11.40;99.90
62339;DHT22;48368;53.406;6.214;2023-11-19T14:23:43;11.30;99.90
62339;DHT22;48368;53.406;6.214;2023-11-19T14:26:09;11.20;99.90
62339;DHT22;48368;53.406;6.214;2023-11-19T14:28:34;11.20;99.90
62339;DHT22;48368;53.406;6.214;2023-11-19T14:31:00;11.10;99.90
62339;DHT22;48368;53.406;6.214;2023-11-19T14:33:26;11.20;99.90
62339;DHT22;48368;53.406;6.214;2023-11-19T14:35:51;11.20;99.90
62339;DHT22;48368;53.406;6.214;2023-11-19T14:38:20;11.10;99.90
62339;DHT22;48368;53.406;6.214;2023-11-19T14:41:25;11.20;99.90
62339;DHT22;48368;53.406;6.214;2023-11-19T14:44:16;11.20;99.90
62339;DHT22;48368;53.406;6.214;2023-11-19T14:50:23;11.10;99.90
62339;DHT22;48368;53.406;6.214;2023-11-19T14:58:38;11.10;99.90
62339;DHT22;48368;53.406;6.214;2023-11-19T15:01:12;11.10;99.90
62339;DHT22;48368;53.406;6.214;2023-11-19T15:03:37;11.10;99.90
62339;DHT22;48368;53.406;6.214;2023-11-19T15:06:03;11.10;99.90
62339;DHT22;48368;53.406;6.214;2023-11-19T15:08:28;11.00;99.90
62339;DHT22;48368;53.406;6.214;2023-11-19T15:10:55;10.90;99.90
62339;DHT22;48368;53.406;6.214;2023-11-19T15:13:23;10.90;99.90
62339;DHT22;48368;53.406;6.214;2023-11-19T15:15:49;10.90;99.90
62339;DHT22;48368;53.406;6.214;2023-11-19T15:23:10;10.80;99.90
62339;DHT22;48368;53.406;6.214;2023-11-19T15:25:36;10.80;99.90
62339;DHT22;48368;53.406;6.214;2023-11-19T15:28:02;10.70;99.90
62339;DHT22;48368;53.406;6.214;2023-11-19T15:30:27;10.70;99.90
62339;DHT22;48368;53.406;6.214;2023-11-19T15:32:53;10.70;99.90
62339;DHT22;48368;53.406;6.214;2023-11-19T15:35:20;10.60;99.90
62339;DHT22;48368;53.406;6.214;2023-11-19T15:37:46;10.60;99.90
62339;DHT22;48368;53.406;6.214;2023-11-19T15:40:11;10.60;99.90
62339;DHT22;48368;53.406;6.214;2023-11-19T15:42:38;10.50;99.90
62339;DHT22;48368;53.406;6.214;2023-11-19T15:47:41;10.60;99.90
62339;DHT22;48368;53.406;6.214;2023-11-19T15:50:08;10.60;99.90
62339;DHT22;48368;53.406;6.214;2023-11-19T15:52:35;10.60;99.90
62339;DHT22;48368;53.406;6.214;2023-11-19T15:55:03;10.60;99.90
62339;DHT22;48368;53.406;6.214;2023-11-19T15:57:29;10.60;99.90
62339;DHT22;48368;53.406;6.214;2023-11-19T15:59:55;10.60;99.90
62339;DHT22;48368;53.406;6.214;2023-11-19T16:02:20;10.60;99.90
62339;DHT22;48368;53.406;6.214;2023-11-19T16:04:46;10.60;99.90
62339;DHT22;48368;53.406;6.214;2023-11-19T16:07:15;10.50;99.90
62339;DHT22;48368;53.406;6.214;2023-11-19T16:09:41;10.60;99.90
62339;DHT22;48368;53.406;6.214;2023-11-19T16:12:08;10.60;99.90
62339;DHT22;48368;53.406;6.214;2023-11-19T16:14:36;10.60;99.90
62339;DHT22;48368;53.406;6.214;2023-11-19T16:17:02;10.50;99.90
62339;DHT22;48368;53.406;6.214;2023-11-19T16:19:27;10.60;99.90
62339;DHT22;48368;53.406;6.214;2023-11-19T16:21:53;10.50;99.90
62339;DHT22;48368;53.406;6.214;2023-11-19T16:24:19;10.60;99.90
62339;DHT22;48368;53.406;6.214;2023-11-19T16:26:45;10.50;99.90
62339;DHT22;48368;53.406;6.214;2023-11-19T16:29:11;10.50;99.90
62339;DHT22;48368;53.406;6.214;2023-11-19T16:31:36;10.50;99.90
62339;DHT22;48368;53.406;6.214;2023-11-19T16:34:02;10.50;99.90
62339;DHT22;48368;53.406;6.214;2023-11-19T16:36:31;10.50;99.90
62339;DHT22;48368;53.406;6.214;2023-11-19T16:39:00;10.50;99.90
62339;DHT22;48368;53.406;6.214;2023-11-19T16:41:26;10.50;99.90
62339;DHT22;48368;53.406;6.214;2023-11-19T16:43:51;10.50;99.90
62339;DHT22;48368;53.406;6.214;2023-11-19T16:46:19;10.40;99.90
62339;DHT22;48368;53.406;6.214;2023-11-19T16:48:46;10.50;99.90
62339;DHT22;48368;53.406;6.214;2023-11-19T16:51:15;10.40;99.90
62339;DHT22;48368;53.406;6.214;2023-11-19T16:53:47;10.40;99.90
62339;DHT22;48368;53.406;6.214;2023-11-19T16:56:16;10.40;99.90
62339;DHT22;48368;53.406;6.214;2023-11-19T16:58:43;10.40;99.90
62339;DHT22;48368;53.406;6.214;2023-11-19T17:01:13;10.40;99.90
62339;DHT22;48368;53.406;6.214;2023-11-19T17:03:41;10.40;99.90
62339;DHT22;48368;53.406;6.214;2023-11-19T17:06:07;10.40;99.90
62339;DHT22;48368;53.406;6.214;2023-11-19T17:08:33;10.40;99.90
62339;DHT22;48368;53.406;6.214;2023-11-19T17:11:04;10.40;99.90
62339;DHT22;48368;53.406;6.214;2023-11-19T17:13:35;10.40;99.90
62339;DHT22;48368;53.406;6.214;2023-11-19T17:16:02;10.40;99.90
62339;DHT22;48368;53.406;6.214;2023-11-19T17:18:29;10.30;99.90
62339;DHT22;48368;53.406;6.214;2023-11-19T17:20:54;10.40;99.90
62339;DHT22;48368;53.406;6.214;2023-11-19T17:23:21;10.40;99.90
62339;DHT22;48368;53.406;6.214;2023-11-19T17:25:46;10.40;99.90
62339;DHT22;48368;53.406;6.214;2023-11-19T17:28:13;10.40;99.90
62339;DHT22;48368;53.406;6.214;2023-11-19T17:30:38;10.40;99.90
62339;DHT22;48368;53.406;6.214;2023-11-19T17:33:04;10.30;99.90
62339;DHT22;48368;53.406;6.214;2023-11-19T17:35:31;10.40;99.90
62339;DHT22;48368;53.406;6.214;2023-11-19T17:37:57;10.40;99.90
62339;DHT22;48368;53.406;6.214;2023-11-19T17:40:23;10.40;99.90
62339;DHT22;48368;53.406;6.214;2023-11-19T17:42:49;10.30;99.90
62339;DHT22;48368;53.406;6.214;2023-11-19T17:45:15;10.30;99.90
62339;DHT22;48368;53.406;6.214;2023-11-19T17:47:41;10.30;99.90
62339;DHT22;48368;53.406;6.214;2023-11-19T17:50:06;10.30;99.90
62339;DHT22;48368;53.406;6.214;2023-11-19T17:52:34;10.40;99.90
62339;DHT22;48368;53.406;6.214;2023-11-19T17:55:00;10.40;99.90
62339;DHT22;48368;53.406;6.214;2023-11-19T17:57:28;10.30;99.90
62339;DHT22;48368;53.406;6.214;2023-11-19T17:59:54;10.40;99.90
62339;DHT22;48368;53.406;6.214;2023-11-19T18:02:19;10.40;99.90
62339;DHT22;48368;53.406;6.214;2023-11-19T18:04:46;10.40;99.90
62339;DHT22;48368;53.406;6.214;2023-11-19T18:07:17;10.40;99.90
62339;DHT22;48368;53.406;6.214;2023-11-19T18:09:43;10.40;99.90
62339;DHT22;48368;53.406;6.214;2023-11-19T18:12:10;10.40;99.90
62339;DHT22;48368;53.406;6.214;2023-11-19T18:14:39;10.40;99.90
62339;DHT22;48368;53.406;6.214;2023-11-19T18:17:05;10.40;99.90
62339;DHT22;48368;53.406;6.214;2023-11-19T18:19:31;10.40;99.90
62339;DHT22;48368;53.406;6.214;2023-11-19T18:21:57;10.30;99.90
62339;DHT22;48368;53.406;6.214;2023-11-19T18:24:25;10.30;99.90
62339;DHT22;48368;53.406;6.214;2023-11-19T18:26:51;10.30;99.90
62339;DHT22;48368;53.406;6.214;2023-11-19T18:29:16;10.30;99.90
62339;DHT22;48368;53.406;6.214;2023-11-19T18:31:43;10.40;99.90
62339;DHT22;48368;53.406;6.214;2023-11-19T18:34:09;10.30;99.90
62339;DHT22;48368;53.406;6.214;2023-11-19T18:36:35;10.30;99.90
62339;DHT22;48368;53.406;6.214;2023-11-19T18:39:04;10.30;99.90
62339;DHT22;48368;53.406;6.214;2023-11-19T18:41:30;10.30;99.90
62339;DHT22;48368;53.406;6.214;2023-11-19T18:43:56;10.30;99.90
62339;DHT22;48368;53.406;6.214;2023-11-19T18:46:22;10.40;99.90
62339;DHT22;48368;53.406;6.214;2023-11-19T18:48:47;10.30;99.90
62339;DHT22;48368;53.406;6.214;2023-11-19T18:51:13;10.30;99.90
62339;DHT22;48368;53.406;6.214;2023-11-19T18:53:40;10.30;99.90
62339;DHT22;48368;53.406;6.214;2023-11-19T18:56:08;10.30;99.90
62339;DHT22;48368;53.406;6.214;2023-11-19T18:58:36;10.30;99.90
62339;DHT22;48368;53.406;6.214;2023-11-19T19:01:01;10.30;99.90
62339;DHT22;48368;53.406;6.214;2023-11-19T19:03:27;10.30;99.90
62339;DHT22;48368;53.406;6.214;2023-11-19T19:05:57;10.30;99.90
62339;DHT22;48368;53.406;6.214;2023-11-19T19:08:25;10.30;99.90
62339;DHT22;48368;53.406;6.214;2023-11-19T19:10:51;10.30;99.90
62339;DHT22;48368;53.406;6.214;2023-11-19T19:13:20;10.30;99.90
62339;DHT22;48368;53.406;6.214;2023-11-19T19:15:47;10.30;99.90
62339;DHT22;48368;53.406;6.214;2023-11-19T19:18:13;10.30;99.90
62339;DHT22;48368;53.406;6.214;2023-11-19T19:20:39;10.30;99.90
62339;DHT22;48368;53.406;6.214;2023-11-19T19:23:04;10.30;99.90
62339;DHT22;48368;53.406;6.214;2023-11-19T19:25:32;10.30;99.90
62339;DHT22;48368;53.406;6.214;2023-11-19T19:27:58;10.30;99.90
62339;DHT22;48368;53.406;6.214;2023-11-19T19:30:24;10.30;99.90
62339;DHT22;48368;53.406;6.214;2023-11-19T19:32:50;10.30;99.90
62339;DHT22;48368;53.406;6.214;2023-11-19T19:35:17;10.30;99.90
62339;DHT22;48368;53.406;6.214;2023-11-19T19:37:43;10.30;99.90
62339;DHT22;48368;53.406;6.214;2023-11-19T19:40:11;10.30;99.90
62339;DHT22;48368;53.406;6.214;2023-11-19T19:42:40;10.30;99.90
62339;DHT22;48368;53.406;6.214;2023-11-19T19:45:09;10.30;99.90
62339;DHT22;48368;53.406;6.214;2023-11-19T19:47:37;10.30;99.90
62339;DHT22;48368;53.406;6.214;2023-11-19T19:50:05;10.30;99.90
62339;DHT22;48368;53.406;6.214;2023-11-19T19:52:33;10.30;99.90
62339;DHT22;48368;53.406;6.214;2023-11-19T19:55:00;10.20;99.90
62339;DHT22;48368;53.406;6.214;2023-11-19T19:57:27;10.30;99.90
62339;DHT22;48368;53.406;6.214;2023-11-19T19:59:55;10.20;99.90
62339;DHT22;48368;53.406;6.214;2023-11-19T20:02:21;10.30;99.90
62339;DHT22;48368;53.406;6.214;2023-11-19T20:04:47;10.30;99.90
62339;DHT22;48368;53.406;6.214;2023-11-19T20:07:13;10.30;99.90
62339;DHT22;48368;53.406;6.214;2023-11-19T20:09:38;10.30;99.90
62339;DHT22;48368;53.406;6.214;2023-11-19T20:12:07;10.30;99.90
62339;DHT22;48368;53.406;6.214;2023-11-19T20:14:34;10.30;99.90
62339;DHT22;48368;53.406;6.214;2023-11-19T20:17:00;10.30;99.90
62339;DHT22;48368;53.406;6.214;2023-11-19T20:19:25;10.30;99.90
62339;DHT22;48368;53.406;6.214;2023-11-19T20:21:51;10.30;99.90
62339;DHT22;48368;53.406;6.214;2023-11-19T20:24:17;10.30;99.90
62339;DHT22;48368;53.406;6.214;2023-11-19T20:26:42;10.30;99.90
62339;DHT22;48368;53.406;6.214;2023-11-19T20:29:11;10.30;99.90
62339;DHT22;48368;53.406;6.214;2023-11-19T20:31:42;10.30;99.90
62339;DHT22;48368;53.406;6.214;2023-11-19T20:34:08;10.30;99.90
62339;DHT22;48368;53.406;6.214;2023-11-19T20:36:34;10.30;99.90
62339;DHT22;48368;53.406;6.214;2023-11-19T20:39:00;10.30;99.90
62339;DHT22;48368;53.406;6.214;2023-11-19T20:41:25;10.30;99.90
62339;DHT22;48368;53.406;6.214;2023-11-19T20:43:53;10.30;99.90
62339;DHT22;48368;53.406;6.214;2023-11-19T20:46:18;10.20;99.90
62339;DHT22;48368;53.406;6.214;2023-11-19T20:48:49;10.20;99.90
62339;DHT22;48368;53.406;6.214;2023-11-19T20:51:15;10.30;99.90
62339;DHT22;48368;53.406;6.214;2023-11-19T20:53:41;10.30;99.90
62339;DHT22;48368;53.406;6.214;2023-11-19T20:56:07;10.30;99.90
62339;DHT22;48368;53.406;6.214;2023-11-19T20:58:33;10.20;99.90
62339;DHT22;48368;53.406;6.214;2023-11-19T21:01:00;10.30;99.90